sensor_id;sensor_type;location;lat;lon;timestamp;P1;durP1;ratioP1;P2;durP2;ratioP2
43801;SDS011;29429;51.074;13.764;2023-04-25T00:02:24;3.78;;;2.42;;
43801;SDS011;29429;51.074;13.764;2023-04-25T00:04:52;2.72;;;1.88;;
43801;SDS011;29429;51.074;13.764;2023-04-25T00:07:20;4.90;;;2.08;;
43801;SDS011;29429;51.074;13.764;2023-04-25T00:09:48;6.10;;;2.53;;
43801;SDS011;29429;51.074;13.764;2023-04-25T00:12:15;3.67;;;2.35;;
43801;SDS011;29429;51.074;13.764;2023-04-25T00:14:43;3.83;;;2.60;;
43801;SDS011;29429;51.074;13.764;2023-04-25T00:17:11;5.47;;;2.65;;
43801;SDS011;29429;51.074;13.764;2023-04-25T00:19:39;3.35;;;2.42;;
43801;SDS011;29429;51.074;13.764;2023-04-25T00:22:06;4.18;;;1.83;;
43801;SDS011;29429;51.074;13.764;2023-04-25T00:24:33;3.80;;;2.20;;
43801;SDS011;29429;51.074;13.764;2023-04-25T00:27:01;4.90;;;2.55;;
43801;SDS011;29429;51.074;13.764;2023-04-25T00:29:28;4.18;;;2.35;;
43801;SDS011;29429;51.074;13.764;2023-04-25T00:31:55;3.55;;;2.58;;
43801;SDS011;29429;51.074;13.764;2023-04-25T00:34:23;2.92;;;2.35;;
43801;SDS011;29429;51.074;13.764;2023-04-25T00:36:50;2.47;;;2.00;;
43801;SDS011;29429;51.074;13.764;2023-04-25T00:39:18;4.95;;;2.75;;
43801;SDS011;29429;51.074;13.764;2023-04-25T00:41:45;3.83;;;2.58;;
43801;SDS011;29429;51.074;13.764;2023-04-25T00:44:14;4.80;;;3.08;;
43801;SDS011;29429;51.074;13.764;2023-04-25T00:46:43;4.93;;;2.83;;
43801;SDS011;29429;51.074;13.764;2023-04-25T00:49:10;5.35;;;3.58;;
43801;SDS011;29429;51.074;13.764;2023-04-25T00:51:41;5.32;;;3.17;;
43801;SDS011;29429;51.074;13.764;2023-04-25T00:54:12;4.47;;;2.80;;
43801;SDS011;29429;51.074;13.764;2023-04-25T00:56:39;4.50;;;3.08;;
43801;SDS011;29429;51.074;13.764;2023-04-25T00:59:09;4.32;;;2.72;;
43801;SDS011;29429;51.074;13.764;2023-04-25T01:01:38;4.25;;;2.67;;
43801;SDS011;29429;51.074;13.764;2023-04-25T01:04:09;5.65;;;3.55;;
43801;SDS011;29429;51.074;13.764;2023-04-25T01:06:36;4.50;;;3.20;;
43801;SDS011;29429;51.074;13.764;2023-04-25T01:09:04;4.97;;;3.28;;
43801;SDS011;29429;51.074;13.764;2023-04-25T01:11:32;5.82;;;3.60;;
43801;SDS011;29429;51.074;13.764;2023-04-25T01:14:00;5.45;;;3.10;;
43801;SDS011;29429;51.074;13.764;2023-04-25T01:16:28;6.07;;;3.92;;
43801;SDS011;29429;51.074;13.764;2023-04-25T01:18:56;7.25;;;3.97;;
43801;SDS011;29429;51.074;13.764;2023-04-25T01:21:23;7.25;;;4.00;;
43801;SDS011;29429;51.074;13.764;2023-04-25T01:23:53;5.50;;;3.75;;
43801;SDS011;29429;51.074;13.764;2023-04-25T01:26:21;7.10;;;3.78;;
43801;SDS011;29429;51.074;13.764;2023-04-25T01:28:50;5.47;;;3.80;;
43801;SDS011;29429;51.074;13.764;2023-04-25T01:31:18;8.75;;;4.50;;
43801;SDS011;29429;51.074;13.764;2023-04-25T01:33:45;6.63;;;4.47;;
43801;SDS011;29429;51.074;13.764;2023-04-25T01:36:13;6.50;;;4.57;;
43801;SDS011;29429;51.074;13.764;2023-04-25T01:38:41;7.85;;;4.65;;
43801;SDS011;29429;51.074;13.764;2023-04-25T01:41:10;7.65;;;4.85;;
43801;SDS011;29429;51.074;13.764;2023-04-25T01:43:37;7.88;;;4.22;;
43801;SDS011;29429;51.074;13.764;2023-04-25T01:46:05;8.07;;;4.57;;
43801;SDS011;29429;51.074;13.764;2023-04-25T01:48:33;6.72;;;4.47;;
43801;SDS011;29429;51.074;13.764;2023-04-25T01:51:00;7.78;;;4.53;;
43801;SDS011;29429;51.074;13.764;2023-04-25T01:53:28;6.70;;;4.55;;
43801;SDS011;29429;51.074;13.764;2023-04-25T01:55:56;8.00;;;4.55;;
43801;SDS011;29429;51.074;13.764;2023-04-25T01:58:26;6.15;;;4.20;;
43801;SDS011;29429;51.074;13.764;2023-04-25T02:01:10;8.02;;;4.32;;
43801;SDS011;29429;51.074;13.764;2023-04-25T02:03:43;8.30;;;4.40;;
43801;SDS011;29429;51.074;13.764;2023-04-25T02:06:24;6.80;;;4.00;;
43801;SDS011;29429;51.074;13.764;2023-04-25T02:08:53;6.55;;;4.28;;
43801;SDS011;29429;51.074;13.764;2023-04-25T02:11:20;7.85;;;4.88;;
43801;SDS011;29429;51.074;13.764;2023-04-25T02:14:10;6.03;;;4.25;;
43801;SDS011;29429;51.074;13.764;2023-04-25T02:16:44;7.70;;;4.03;;
43801;SDS011;29429;51.074;13.764;2023-04-25T02:19:12;7.30;;;4.07;;
43801;SDS011;29429;51.074;13.764;2023-04-25T02:21:40;7.10;;;4.30;;
43801;SDS011;29429;51.074;13.764;2023-04-25T02:24:07;7.57;;;5.00;;
43801;SDS011;29429;51.074;13.764;2023-04-25T02:26:35;7.82;;;4.28;;
43801;SDS011;29429;51.074;13.764;2023-04-25T02:29:07;9.52;;;4.65;;
43801;SDS011;29429;51.074;13.764;2023-04-25T02:31:35;8.30;;;4.57;;
43801;SDS011;29429;51.074;13.764;2023-04-25T02:34:02;7.38;;;4.30;;
43801;SDS011;29429;51.074;13.764;2023-04-25T02:36:34;6.72;;;4.75;;
43801;SDS011;29429;51.074;13.764;2023-04-25T02:39:01;7.78;;;4.40;;
43801;SDS011;29429;51.074;13.764;2023-04-25T02:41:29;8.48;;;4.75;;
43801;SDS011;29429;51.074;13.764;2023-04-25T02:43:56;8.57;;;4.30;;
43801;SDS011;29429;51.074;13.764;2023-04-25T02:46:24;7.30;;;4.90;;
43801;SDS011;29429;51.074;13.764;2023-04-25T02:49:04;9.35;;;4.10;;
43801;SDS011;29429;51.074;13.764;2023-04-25T02:51:33;7.03;;;4.72;;
43801;SDS011;29429;51.074;13.764;2023-04-25T02:54:00;7.65;;;4.30;;
43801;SDS011;29429;51.074;13.764;2023-04-25T02:56:29;9.45;;;4.53;;
43801;SDS011;29429;51.074;13.764;2023-04-25T02:58:56;5.68;;;4.05;;
43801;SDS011;29429;51.074;13.764;2023-04-25T03:01:23;7.25;;;4.28;;
43801;SDS011;29429;51.074;13.764;2023-04-25T03:03:51;9.02;;;4.80;;
43801;SDS011;29429;51.074;13.764;2023-04-25T03:06:19;10.38;;;4.88;;
43801;SDS011;29429;51.074;13.764;2023-04-25T03:08:46;8.40;;;4.82;;
43801;SDS011;29429;51.074;13.764;2023-04-25T03:11:14;10.85;;;4.95;;
43801;SDS011;29429;51.074;13.764;2023-04-25T03:13:42;7.65;;;4.55;;
43801;SDS011;29429;51.074;13.764;2023-04-25T03:16:10;6.88;;;4.88;;
43801;SDS011;29429;51.074;13.764;2023-04-25T03:18:37;6.78;;;4.47;;
43801;SDS011;29429;51.074;13.764;2023-04-25T03:21:05;7.68;;;5.50;;
43801;SDS011;29429;51.074;13.764;2023-04-25T03:23:32;8.07;;;5.30;;
43801;SDS011;29429;51.074;13.764;2023-04-25T03:26:00;11.25;;;5.15;;
43801;SDS011;29429;51.074;13.764;2023-04-25T03:28:27;9.15;;;5.32;;
43801;SDS011;29429;51.074;13.764;2023-04-25T03:30:56;11.02;;;5.07;;
43801;SDS011;29429;51.074;13.764;2023-04-25T03:33:23;7.32;;;4.65;;
43801;SDS011;29429;51.074;13.764;2023-04-25T03:35:51;8.07;;;4.82;;
43801;SDS011;29429;51.074;13.764;2023-04-25T03:38:19;7.38;;;4.57;;
43801;SDS011;29429;51.074;13.764;2023-04-25T03:40:46;11.15;;;5.28;;
43801;SDS011;29429;51.074;13.764;2023-04-25T03:43:25;10.27;;;5.40;;
43801;SDS011;29429;51.074;13.764;2023-04-25T03:45:58;10.52;;;5.45;;
43801;SDS011;29429;51.074;13.764;2023-04-25T03:48:26;9.43;;;4.85;;
43801;SDS011;29429;51.074;13.764;2023-04-25T03:50:54;8.25;;;5.03;;
43801;SDS011;29429;51.074;13.764;2023-04-25T03:53:21;9.07;;;5.95;;
43801;SDS011;29429;51.074;13.764;2023-04-25T03:56:08;6.65;;;5.05;;
43801;SDS011;29429;51.074;13.764;2023-04-25T03:58:37;9.70;;;5.95;;
43801;SDS011;29429;51.074;13.764;2023-04-25T04:01:05;9.80;;;4.72;;
43801;SDS011;29429;51.074;13.764;2023-04-25T04:03:36;10.15;;;6.03;;
43801;SDS011;29429;51.074;13.764;2023-04-25T04:06:04;11.27;;;5.88;;
43801;SDS011;29429;51.074;13.764;2023-04-25T04:08:36;11.07;;;6.18;;
43801;SDS011;29429;51.074;13.764;2023-04-25T04:11:03;10.20;;;6.25;;
43801;SDS011;29429;51.074;13.764;2023-04-25T04:13:31;11.88;;;5.78;;
43801;SDS011;29429;51.074;13.764;2023-04-25T04:15:59;12.13;;;6.10;;
43801;SDS011;29429;51.074;13.764;2023-04-25T04:18:34;10.80;;;5.93;;
43801;SDS011;29429;51.074;13.764;2023-04-25T04:21:02;10.35;;;5.40;;
43801;SDS011;29429;51.074;13.764;2023-04-25T04:23:32;9.98;;;5.40;;
43801;SDS011;29429;51.074;13.764;2023-04-25T04:26:00;13.07;;;6.22;;
43801;SDS011;29429;51.074;13.764;2023-04-25T04:28:43;11.68;;;5.80;;
43801;SDS011;29429;51.074;13.764;2023-04-25T04:31:22;10.10;;;5.32;;
43801;SDS011;29429;51.074;13.764;2023-04-25T04:33:50;18.15;;;6.18;;
43801;SDS011;29429;51.074;13.764;2023-04-25T04:36:19;12.20;;;6.00;;
43801;SDS011;29429;51.074;13.764;2023-04-25T04:38:50;15.65;;;6.68;;
43801;SDS011;29429;51.074;13.764;2023-04-25T04:41:28;13.20;;;6.28;;
43801;SDS011;29429;51.074;13.764;2023-04-25T04:44:08;10.40;;;5.60;;
43801;SDS011;29429;51.074;13.764;2023-04-25T04:46:52;9.23;;;5.82;;
43801;SDS011;29429;51.074;13.764;2023-04-25T04:49:38;11.40;;;5.38;;
43801;SDS011;29429;51.074;13.764;2023-04-25T04:52:19;9.30;;;5.53;;
43801;SDS011;29429;51.074;13.764;2023-04-25T04:55:00;12.90;;;5.80;;
43801;SDS011;29429;51.074;13.764;2023-04-25T04:57:50;16.30;;;8.13;;
43801;SDS011;29429;51.074;13.764;2023-04-25T05:00:31;12.30;;;5.78;;
43801;SDS011;29429;51.074;13.764;2023-04-25T05:03:02;8.65;;;5.55;;
43801;SDS011;29429;51.074;13.764;2023-04-25T05:05:39;11.98;;;6.97;;
43801;SDS011;29429;51.074;13.764;2023-04-25T05:08:30;11.65;;;6.25;;
43801;SDS011;29429;51.074;13.764;2023-04-25T05:11:23;10.90;;;6.20;;
43801;SDS011;29429;51.074;13.764;2023-04-25T05:14:11;11.90;;;6.45;;
43801;SDS011;29429;51.074;13.764;2023-04-25T05:16:53;7.60;;;5.93;;
43801;SDS011;29429;51.074;13.764;2023-04-25T05:19:31;9.23;;;5.40;;
43801;SDS011;29429;51.074;13.764;2023-04-25T05:22:22;8.30;;;5.55;;
43801;SDS011;29429;51.074;13.764;2023-04-25T05:24:58;11.30;;;5.82;;
43801;SDS011;29429;51.074;13.764;2023-04-25T05:27:57;10.10;;;7.32;;
43801;SDS011;29429;51.074;13.764;2023-04-25T05:30:57;10.27;;;7.05;;
43801;SDS011;29429;51.074;13.764;2023-04-25T05:33:28;10.68;;;6.05;;
43801;SDS011;29429;51.074;13.764;2023-04-25T05:35:56;10.68;;;6.07;;
43801;SDS011;29429;51.074;13.764;2023-04-25T05:38:25;11.88;;;5.47;;
43801;SDS011;29429;51.074;13.764;2023-04-25T05:43:41;8.85;;;5.32;;
43801;SDS011;29429;51.074;13.764;2023-04-25T05:46:30;10.75;;;5.97;;
43801;SDS011;29429;51.074;13.764;2023-04-25T05:49:21;11.85;;;6.03;;
43801;SDS011;29429;51.074;13.764;2023-04-25T05:52:11;11.63;;;4.95;;
43801;SDS011;29429;51.074;13.764;2023-04-25T05:54:44;8.32;;;5.10;;
43801;SDS011;29429;51.074;13.764;2023-04-25T05:57:19;7.85;;;5.15;;
43801;SDS011;29429;51.074;13.764;2023-04-25T06:00:11;11.07;;;5.63;;
43801;SDS011;29429;51.074;13.764;2023-04-25T06:02:43;8.27;;;4.68;;
43801;SDS011;29429;51.074;13.764;2023-04-25T06:05:14;9.82;;;5.13;;
43801;SDS011;29429;51.074;13.764;2023-04-25T06:07:55;9.32;;;4.60;;
43801;SDS011;29429;51.074;13.764;2023-04-25T06:10:23;9.88;;;4.57;;
43801;SDS011;29429;51.074;13.764;2023-04-25T06:12:53;10.38;;;5.15;;
43801;SDS011;29429;51.074;13.764;2023-04-25T06:15:21;13.23;;;5.32;;
43801;SDS011;29429;51.074;13.764;2023-04-25T06:17:54;10.93;;;5.15;;
43801;SDS011;29429;51.074;13.764;2023-04-25T06:20:22;11.98;;;5.97;;
43801;SDS011;29429;51.074;13.764;2023-04-25T06:22:53;9.75;;;5.60;;
43801;SDS011;29429;51.074;13.764;2023-04-25T06:25:26;10.13;;;5.10;;
43801;SDS011;29429;51.074;13.764;2023-04-25T06:27:54;10.15;;;5.30;;
43801;SDS011;29429;51.074;13.764;2023-04-25T06:30:22;10.25;;;5.18;;
43801;SDS011;29429;51.074;13.764;2023-04-25T06:32:59;9.63;;;5.05;;
43801;SDS011;29429;51.074;13.764;2023-04-25T06:35:27;6.55;;;4.50;;
43801;SDS011;29429;51.074;13.764;2023-04-25T06:37:55;12.32;;;5.20;;
43801;SDS011;29429;51.074;13.764;2023-04-25T06:40:23;7.28;;;4.57;;
43801;SDS011;29429;51.074;13.764;2023-04-25T06:42:51;11.00;;;4.95;;
43801;SDS011;29429;51.074;13.764;2023-04-25T06:45:44;7.82;;;4.70;;
43801;SDS011;29429;51.074;13.764;2023-04-25T06:48:13;8.88;;;4.32;;
43801;SDS011;29429;51.074;13.764;2023-04-25T06:50:41;11.60;;;4.85;;
43801;SDS011;29429;51.074;13.764;2023-04-25T06:53:10;11.15;;;5.57;;
43801;SDS011;29429;51.074;13.764;2023-04-25T06:55:39;8.52;;;5.03;;
43801;SDS011;29429;51.074;13.764;2023-04-25T06:58:12;9.50;;;4.50;;
43801;SDS011;29429;51.074;13.764;2023-04-25T07:00:49;7.25;;;4.03;;
43801;SDS011;29429;51.074;13.764;2023-04-25T07:03:19;11.00;;;4.30;;
43801;SDS011;29429;51.074;13.764;2023-04-25T07:05:47;10.00;;;3.72;;
43801;SDS011;29429;51.074;13.764;2023-04-25T07:08:14;7.35;;;3.38;;
43801;SDS011;29429;51.074;13.764;2023-04-25T07:10:42;7.70;;;3.50;;
43801;SDS011;29429;51.074;13.764;2023-04-25T07:13:11;7.28;;;3.53;;
43801;SDS011;29429;51.074;13.764;2023-04-25T07:15:38;5.97;;;3.78;;
43801;SDS011;29429;51.074;13.764;2023-04-25T07:18:06;10.50;;;3.95;;
43801;SDS011;29429;51.074;13.764;2023-04-25T07:20:33;6.57;;;2.92;;
43801;SDS011;29429;51.074;13.764;2023-04-25T07:23:02;9.30;;;2.78;;
43801;SDS011;29429;51.074;13.764;2023-04-25T07:25:29;8.32;;;3.90;;
43801;SDS011;29429;51.074;13.764;2023-04-25T07:27:57;5.88;;;3.00;;
43801;SDS011;29429;51.074;13.764;2023-04-25T07:30:25;5.95;;;2.60;;
43801;SDS011;29429;51.074;13.764;2023-04-25T07:32:53;7.03;;;3.53;;
43801;SDS011;29429;51.074;13.764;2023-04-25T07:35:21;6.43;;;2.95;;
43801;SDS011;29429;51.074;13.764;2023-04-25T07:37:52;7.35;;;2.83;;
43801;SDS011;29429;51.074;13.764;2023-04-25T07:40:23;7.43;;;3.20;;
43801;SDS011;29429;51.074;13.764;2023-04-25T07:42:55;5.47;;;3.25;;
43801;SDS011;29429;51.074;13.764;2023-04-25T07:45:31;5.22;;;3.10;;
43801;SDS011;29429;51.074;13.764;2023-04-25T07:47:58;7.63;;;3.50;;
43801;SDS011;29429;51.074;13.764;2023-04-25T07:50:27;6.75;;;2.80;;
43801;SDS011;29429;51.074;13.764;2023-04-25T07:52:55;5.13;;;2.65;;
43801;SDS011;29429;51.074;13.764;2023-04-25T07:55:29;6.05;;;2.78;;
43801;SDS011;29429;51.074;13.764;2023-04-25T07:58:10;7.13;;;3.17;;
43801;SDS011;29429;51.074;13.764;2023-04-25T08:00:40;6.13;;;2.60;;
43801;SDS011;29429;51.074;13.764;2023-04-25T08:03:28;3.83;;;2.13;;
43801;SDS011;29429;51.074;13.764;2023-04-25T08:06:06;7.18;;;2.65;;
43801;SDS011;29429;51.074;13.764;2023-04-25T08:09:05;8.27;;;3.13;;
43801;SDS011;29429;51.074;13.764;2023-04-25T08:11:38;6.22;;;2.85;;
43801;SDS011;29429;51.074;13.764;2023-04-25T08:14:10;5.70;;;3.22;;
43801;SDS011;29429;51.074;13.764;2023-04-25T08:17:06;3.42;;;2.50;;
43801;SDS011;29429;51.074;13.764;2023-04-25T08:19:40;6.10;;;2.58;;
43801;SDS011;29429;51.074;13.764;2023-04-25T08:22:23;5.50;;;2.70;;
43801;SDS011;29429;51.074;13.764;2023-04-25T08:25:23;6.95;;;2.65;;
43801;SDS011;29429;51.074;13.764;2023-04-25T08:27:55;6.35;;;2.58;;
43801;SDS011;29429;51.074;13.764;2023-04-25T08:30:55;6.63;;;2.70;;
43801;SDS011;29429;51.074;13.764;2023-04-25T08:33:48;8.93;;;2.70;;
43801;SDS011;29429;51.074;13.764;2023-04-25T08:36:38;5.90;;;2.75;;
43801;SDS011;29429;51.074;13.764;2023-04-25T08:39:22;5.33;;;2.30;;
43801;SDS011;29429;51.074;13.764;2023-04-25T08:42:09;9.13;;;2.40;;
43801;SDS011;29429;51.074;13.764;2023-04-25T08:44:39;5.97;;;2.72;;
43801;SDS011;29429;51.074;13.764;2023-04-25T08:47:07;6.65;;;2.40;;
43801;SDS011;29429;51.074;13.764;2023-04-25T08:49:43;4.78;;;2.42;;
43801;SDS011;29429;51.074;13.764;2023-04-25T08:52:13;7.13;;;3.22;;
43801;SDS011;29429;51.074;13.764;2023-04-25T08:54:42;4.47;;;3.03;;
43801;SDS011;29429;51.074;13.764;2023-04-25T08:57:12;7.28;;;3.15;;
43801;SDS011;29429;51.074;13.764;2023-04-25T08:59:41;7.20;;;2.80;;
43801;SDS011;29429;51.074;13.764;2023-04-25T09:02:12;5.50;;;2.55;;
43801;SDS011;29429;51.074;13.764;2023-04-25T09:04:46;5.20;;;2.72;;
43801;SDS011;29429;51.074;13.764;2023-04-25T09:07:14;6.28;;;3.13;;
43801;SDS011;29429;51.074;13.764;2023-04-25T09:09:49;4.82;;;2.60;;
43801;SDS011;29429;51.074;13.764;2023-04-25T09:12:19;6.32;;;3.35;;
43801;SDS011;29429;51.074;13.764;2023-04-25T09:17:56;4.78;;;2.80;;
43801;SDS011;29429;51.074;13.764;2023-04-25T09:20:41;5.13;;;3.25;;
43801;SDS011;29429;51.074;13.764;2023-04-25T09:23:18;7.88;;;3.72;;
43801;SDS011;29429;51.074;13.764;2023-04-25T09:25:52;6.30;;;3.70;;
43801;SDS011;29429;51.074;13.764;2023-04-25T09:28:24;6.32;;;3.50;;
43801;SDS011;29429;51.074;13.764;2023-04-25T09:30:59;5.05;;;3.00;;
43801;SDS011;29429;51.074;13.764;2023-04-25T09:33:35;5.97;;;3.20;;
43801;SDS011;29429;51.074;13.764;2023-04-25T09:36:07;9.15;;;3.28;;
43801;SDS011;29429;51.074;13.764;2023-04-25T09:38:57;6.45;;;3.20;;
43801;SDS011;29429;51.074;13.764;2023-04-25T09:41:30;8.80;;;3.58;;
43801;SDS011;29429;51.074;13.764;2023-04-25T09:44:00;4.97;;;3.50;;
43801;SDS011;29429;51.074;13.764;2023-04-25T09:46:39;5.38;;;3.42;;
43801;SDS011;29429;51.074;13.764;2023-04-25T09:49:19;5.10;;;3.30;;
43801;SDS011;29429;51.074;13.764;2023-04-25T09:52:05;5.65;;;3.47;;
43801;SDS011;29429;51.074;13.764;2023-04-25T09:54:39;7.32;;;3.60;;
43801;SDS011;29429;51.074;13.764;2023-04-25T09:57:10;7.88;;;3.70;;
43801;SDS011;29429;51.074;13.764;2023-04-25T09:59:56;5.38;;;3.60;;
43801;SDS011;29429;51.074;13.764;2023-04-25T10:02:39;7.85;;;3.72;;
43801;SDS011;29429;51.074;13.764;2023-04-25T10:05:34;7.35;;;3.72;;
43801;SDS011;29429;51.074;13.764;2023-04-25T10:08:04;7.18;;;3.15;;
43801;SDS011;29429;51.074;13.764;2023-04-25T10:10:33;5.43;;;2.80;;
43801;SDS011;29429;51.074;13.764;2023-04-25T10:13:05;7.18;;;2.70;;
43801;SDS011;29429;51.074;13.764;2023-04-25T10:15:34;5.50;;;2.30;;
43801;SDS011;29429;51.074;13.764;2023-04-25T10:18:09;5.15;;;2.70;;
43801;SDS011;29429;51.074;13.764;2023-04-25T10:20:36;7.85;;;3.10;;
43801;SDS011;29429;51.074;13.764;2023-04-25T10:23:11;5.90;;;3.38;;
43801;SDS011;29429;51.074;13.764;2023-04-25T10:25:41;4.75;;;2.55;;
43801;SDS011;29429;51.074;13.764;2023-04-25T10:28:10;3.92;;;2.42;;
43801;SDS011;29429;51.074;13.764;2023-04-25T10:30:50;8.02;;;2.95;;
43801;SDS011;29429;51.074;13.764;2023-04-25T10:33:41;5.53;;;2.72;;
43801;SDS011;29429;51.074;13.764;2023-04-25T10:36:14;4.47;;;2.50;;
43801;SDS011;29429;51.074;13.764;2023-04-25T10:38:45;7.55;;;2.78;;
43801;SDS011;29429;51.074;13.764;2023-04-25T10:41:14;5.20;;;3.20;;
43801;SDS011;29429;51.074;13.764;2023-04-25T10:43:46;6.30;;;3.42;;
43801;SDS011;29429;51.074;13.764;2023-04-25T10:46:27;9.40;;;3.65;;
43801;SDS011;29429;51.074;13.764;2023-04-25T10:48:59;5.07;;;3.10;;
43801;SDS011;29429;51.074;13.764;2023-04-25T10:54:06;11.75;;;3.25;;
43801;SDS011;29429;51.074;13.764;2023-04-25T10:56:56;4.93;;;2.97;;
43801;SDS011;29429;51.074;13.764;2023-04-25T10:59:26;8.27;;;3.58;;
43801;SDS011;29429;51.074;13.764;2023-04-25T11:01:58;5.90;;;3.90;;
43801;SDS011;29429;51.074;13.764;2023-04-25T11:04:30;4.82;;;3.33;;
43801;SDS011;29429;51.074;13.764;2023-04-25T11:09:46;8.38;;;4.40;;
43801;SDS011;29429;51.074;13.764;2023-04-25T11:12:13;7.95;;;4.50;;
43801;SDS011;29429;51.074;13.764;2023-04-25T11:14:41;7.80;;;3.95;;
43801;SDS011;29429;51.074;13.764;2023-04-25T11:17:12;9.55;;;4.38;;
43801;SDS011;29429;51.074;13.764;2023-04-25T11:19:42;12.33;;;4.50;;
43801;SDS011;29429;51.074;13.764;2023-04-25T11:22:10;8.07;;;3.67;;
43801;SDS011;29429;51.074;13.764;2023-04-25T11:24:44;13.32;;;3.72;;
43801;SDS011;29429;51.074;13.764;2023-04-25T11:27:13;10.68;;;3.70;;
43801;SDS011;29429;51.074;13.764;2023-04-25T11:29:41;9.95;;;3.53;;
43801;SDS011;29429;51.074;13.764;2023-04-25T11:32:08;9.25;;;3.50;;
43801;SDS011;29429;51.074;13.764;2023-04-25T11:34:35;9.05;;;3.10;;
43801;SDS011;29429;51.074;13.764;2023-04-25T11:37:12;5.70;;;2.80;;
43801;SDS011;29429;51.074;13.764;2023-04-25T11:39:43;3.85;;;1.27;;
43801;SDS011;29429;51.074;13.764;2023-04-25T11:42:12;7.10;;;1.80;;
43801;SDS011;29429;51.074;13.764;2023-04-25T11:44:40;4.32;;;1.33;;
43801;SDS011;29429;51.074;13.764;2023-04-25T11:47:07;2.95;;;1.13;;
43801;SDS011;29429;51.074;13.764;2023-04-25T11:49:44;3.50;;;1.60;;
43801;SDS011;29429;51.074;13.764;2023-04-25T11:52:11;3.72;;;1.65;;
43801;SDS011;29429;51.074;13.764;2023-04-25T11:54:39;3.80;;;1.10;;
43801;SDS011;29429;51.074;13.764;2023-04-25T11:57:07;4.60;;;1.30;;
43801;SDS011;29429;51.074;13.764;2023-04-25T11:59:34;3.33;;;1.35;;
43801;SDS011;29429;51.074;13.764;2023-04-25T12:02:02;6.43;;;1.90;;
43801;SDS011;29429;51.074;13.764;2023-04-25T12:04:30;5.28;;;1.85;;
43801;SDS011;29429;51.074;13.764;2023-04-25T12:06:59;3.08;;;1.73;;
43801;SDS011;29429;51.074;13.764;2023-04-25T12:09:39;4.88;;;1.83;;
43801;SDS011;29429;51.074;13.764;2023-04-25T12:12:09;4.47;;;2.00;;
43801;SDS011;29429;51.074;13.764;2023-04-25T12:14:36;4.88;;;1.40;;
43801;SDS011;29429;51.074;13.764;2023-04-25T12:17:04;6.25;;;1.85;;
43801;SDS011;29429;51.074;13.764;2023-04-25T12:19:35;6.35;;;1.80;;
43801;SDS011;29429;51.074;13.764;2023-04-25T12:22:18;6.03;;;2.10;;
43801;SDS011;29429;51.074;13.764;2023-04-25T12:24:50;9.32;;;3.38;;
43801;SDS011;29429;51.074;13.764;2023-04-25T12:27:20;5.68;;;1.92;;
43801;SDS011;29429;51.074;13.764;2023-04-25T12:29:51;7.20;;;2.10;;
43801;SDS011;29429;51.074;13.764;2023-04-25T12:32:21;6.68;;;2.47;;
43801;SDS011;29429;51.074;13.764;2023-04-25T12:34:49;9.98;;;3.15;;
43801;SDS011;29429;51.074;13.764;2023-04-25T12:37:16;8.85;;;2.88;;
43801;SDS011;29429;51.074;13.764;2023-04-25T12:39:43;9.90;;;2.45;;
43801;SDS011;29429;51.074;13.764;2023-04-25T12:42:10;9.15;;;3.00;;
43801;SDS011;29429;51.074;13.764;2023-04-25T12:44:38;9.73;;;3.25;;
43801;SDS011;29429;51.074;13.764;2023-04-25T12:47:06;11.90;;;3.22;;
43801;SDS011;29429;51.074;13.764;2023-04-25T12:49:34;7.47;;;2.58;;
43801;SDS011;29429;51.074;13.764;2023-04-25T12:52:01;9.70;;;3.10;;
43801;SDS011;29429;51.074;13.764;2023-04-25T12:54:28;9.18;;;2.90;;
43801;SDS011;29429;51.074;13.764;2023-04-25T12:56:55;11.13;;;3.95;;
43801;SDS011;29429;51.074;13.764;2023-04-25T12:59:23;11.70;;;2.90;;
43801;SDS011;29429;51.074;13.764;2023-04-25T13:01:50;13.95;;;3.22;;
43801;SDS011;29429;51.074;13.764;2023-04-25T13:04:17;11.77;;;3.55;;
43801;SDS011;29429;51.074;13.764;2023-04-25T13:06:47;11.45;;;2.78;;
43801;SDS011;29429;51.074;13.764;2023-04-25T13:09:14;12.75;;;2.80;;
43801;SDS011;29429;51.074;13.764;2023-04-25T13:11:42;10.95;;;3.38;;
43801;SDS011;29429;51.074;13.764;2023-04-25T13:14:09;17.65;;;3.65;;
43801;SDS011;29429;51.074;13.764;2023-04-25T13:16:36;11.15;;;3.60;;
43801;SDS011;29429;51.074;13.764;2023-04-25T13:19:03;14.70;;;3.30;;
43801;SDS011;29429;51.074;13.764;2023-04-25T13:21:31;15.63;;;4.15;;
43801;SDS011;29429;51.074;13.764;2023-04-25T13:23:59;14.52;;;3.88;;
43801;SDS011;29429;51.074;13.764;2023-04-25T13:26:27;15.77;;;4.57;;
43801;SDS011;29429;51.074;13.764;2023-04-25T13:28:54;14.52;;;3.75;;
43801;SDS011;29429;51.074;13.764;2023-04-25T13:31:24;12.02;;;3.63;;
43801;SDS011;29429;51.074;13.764;2023-04-25T13:33:52;8.90;;;3.50;;
43801;SDS011;29429;51.074;13.764;2023-04-25T13:36:20;11.93;;;4.05;;
43801;SDS011;29429;51.074;13.764;2023-04-25T13:38:48;16.02;;;3.70;;
43801;SDS011;29429;51.074;13.764;2023-04-25T13:41:16;13.63;;;4.10;;
43801;SDS011;29429;51.074;13.764;2023-04-25T13:43:46;10.48;;;3.50;;
43801;SDS011;29429;51.074;13.764;2023-04-25T13:46:20;7.57;;;3.22;;
43801;SDS011;29429;51.074;13.764;2023-04-25T13:49:11;9.43;;;2.92;;
43801;SDS011;29429;51.074;13.764;2023-04-25T13:51:39;16.42;;;3.40;;
43801;SDS011;29429;51.074;13.764;2023-04-25T13:54:09;11.07;;;3.60;;
43801;SDS011;29429;51.074;13.764;2023-04-25T13:59:29;11.02;;;3.03;;
43801;SDS011;29429;51.074;13.764;2023-04-25T14:01:56;13.75;;;3.90;;
43801;SDS011;29429;51.074;13.764;2023-04-25T14:04:24;11.02;;;3.55;;
43801;SDS011;29429;51.074;13.764;2023-04-25T14:06:51;13.00;;;3.55;;
43801;SDS011;29429;51.074;13.764;2023-04-25T14:09:18;9.13;;;4.03;;
43801;SDS011;29429;51.074;13.764;2023-04-25T14:11:49;10.77;;;3.28;;
43801;SDS011;29429;51.074;13.764;2023-04-25T14:14:16;9.82;;;3.30;;
43801;SDS011;29429;51.074;13.764;2023-04-25T14:16:43;11.60;;;3.40;;
43801;SDS011;29429;51.074;13.764;2023-04-25T14:19:11;7.00;;;2.60;;
43801;SDS011;29429;51.074;13.764;2023-04-25T14:21:38;12.82;;;3.08;;
43801;SDS011;29429;51.074;13.764;2023-04-25T14:24:08;15.02;;;3.33;;
43801;SDS011;29429;51.074;13.764;2023-04-25T14:26:37;10.25;;;2.90;;
43801;SDS011;29429;51.074;13.764;2023-04-25T14:29:04;9.88;;;3.33;;
43801;SDS011;29429;51.074;13.764;2023-04-25T14:31:38;10.30;;;3.50;;
43801;SDS011;29429;51.074;13.764;2023-04-25T14:34:07;13.52;;;3.25;;
43801;SDS011;29429;51.074;13.764;2023-04-25T14:36:35;9.60;;;3.15;;
43801;SDS011;29429;51.074;13.764;2023-04-25T14:39:03;13.57;;;3.05;;
43801;SDS011;29429;51.074;13.764;2023-04-25T14:41:31;12.93;;;3.35;;
43801;SDS011;29429;51.074;13.764;2023-04-25T14:43:59;11.02;;;2.83;;
43801;SDS011;29429;51.074;13.764;2023-04-25T14:46:27;11.65;;;3.35;;
43801;SDS011;29429;51.074;13.764;2023-04-25T14:48:55;14.43;;;3.63;;
43801;SDS011;29429;51.074;13.764;2023-04-25T14:51:22;10.15;;;3.10;;
43801;SDS011;29429;51.074;13.764;2023-04-25T14:53:50;7.85;;;2.78;;
43801;SDS011;29429;51.074;13.764;2023-04-25T14:56:18;10.55;;;2.92;;
43801;SDS011;29429;51.074;13.764;2023-04-25T14:58:45;14.30;;;4.28;;
43801;SDS011;29429;51.074;13.764;2023-04-25T15:01:13;6.88;;;3.50;;
43801;SDS011;29429;51.074;13.764;2023-04-25T15:03:41;12.32;;;3.63;;
43801;SDS011;29429;51.074;13.764;2023-04-25T15:06:09;11.52;;;3.53;;
43801;SDS011;29429;51.074;13.764;2023-04-25T15:08:36;11.68;;;3.22;;
43801;SDS011;29429;51.074;13.764;2023-04-25T15:11:04;9.55;;;2.65;;
43801;SDS011;29429;51.074;13.764;2023-04-25T15:13:32;7.80;;;2.35;;